createdAt,value
2018-05-27T00:01:36.729Z,19.16
2018-05-27T00:04:04.349Z,19.15
2018-05-27T00:06:31.950Z,19.13
2018-05-27T00:08:59.672Z,18.98
2018-05-27T00:11:27.278Z,18.96
2018-05-27T00:13:54.922Z,18.97
2018-05-27T00:16:22.602Z,18.91
2018-05-27T00:18:50.293Z,18.90
2018-05-27T00:21:18.084Z,18.90
2018-05-27T00:23:45.704Z,18.84
2018-05-27T00:26:13.307Z,18.86
2018-05-27T00:28:40.947Z,18.86
2018-05-27T00:31:08.549Z,18.83
2018-05-27T00:33:36.219Z,18.85
2018-05-27T00:36:03.845Z,18.83
2018-05-27T00:38:31.584Z,18.80
2018-05-27T00:40:59.210Z,18.67
2018-05-27T00:43:26.809Z,18.62
2018-05-27T00:45:54.683Z,18.59
2018-05-27T00:48:22.288Z,18.65
2018-05-27T00:50:49.920Z,18.64
2018-05-27T00:53:17.535Z,18.55
2018-05-27T00:55:45.186Z,18.50
2018-05-27T00:58:12.780Z,18.51
2018-05-27T01:00:40.403Z,18.49
2018-05-27T01:03:08.054Z,18.30
2018-05-27T01:05:35.661Z,18.33
2018-05-27T01:08:03.313Z,18.36
2018-05-27T01:10:31.070Z,18.35
2018-05-27T01:12:58.713Z,18.36
2018-05-27T01:15:26.323Z,18.38
2018-05-27T01:17:54.102Z,18.37
2018-05-27T01:20:21.698Z,18.41
2018-05-27T01:22:49.315Z,18.38
2018-05-27T01:25:16.931Z,18.28
2018-05-27T01:27:44.540Z,18.21
2018-05-27T01:30:12.221Z,18.14
2018-05-27T01:32:39.826Z,18.10
2018-05-27T01:35:07.553Z,18.11
2018-05-27T01:37:35.151Z,18.07
2018-05-27T01:40:02.754Z,18.03
2018-05-27T01:42:30.401Z,18.09
2018-05-27T01:44:58.006Z,18.07
2018-05-27T01:47:25.632Z,18.05
2018-05-27T01:49:53.252Z,18.04
2018-05-27T01:52:20.887Z,17.94
2018-05-27T01:54:48.495Z,17.97
2018-05-27T01:57:16.090Z,17.95
2018-05-27T01:59:43.726Z,17.90
2018-05-27T02:02:11.335Z,17.88
2018-05-27T02:04:38.990Z,17.82
2018-05-27T02:07:06.587Z,17.84
2018-05-27T02:09:34.193Z,17.83
2018-05-27T02:12:01.811Z,17.83
2018-05-27T02:14:29.403Z,17.79
2018-05-27T02:16:57.047Z,17.78
2018-05-27T02:19:24.649Z,17.74
2018-05-27T02:21:52.255Z,17.75
2018-05-27T02:24:19.965Z,17.69
2018-05-27T02:26:47.570Z,17.58
2018-05-27T02:29:15.203Z,17.55
2018-05-27T02:31:42.799Z,17.56
2018-05-27T02:34:10.406Z,17.53
2018-05-27T02:36:38.026Z,17.47
2018-05-27T02:39:06.514Z,17.49
2018-05-27T02:41:34.128Z,17.47
2018-05-27T02:44:01.746Z,17.47
2018-05-27T02:46:29.372Z,17.46
2018-05-27T02:48:56.976Z,17.42
2018-05-27T02:51:24.581Z,17.45
2018-05-27T02:53:52.209Z,17.38
2018-05-27T02:56:19.814Z,17.41
2018-05-27T02:58:47.459Z,17.36
2018-05-27T03:01:15.067Z,17.43
2018-05-27T03:03:42.717Z,17.42
2018-05-27T03:06:10.332Z,17.38
2018-05-27T03:08:37.944Z,17.36
2018-05-27T03:11:05.586Z,17.36
2018-05-27T03:13:33.194Z,17.29
2018-05-27T03:16:00.829Z,17.30
2018-05-27T03:18:28.439Z,17.26
2018-05-27T03:20:56.095Z,17.19
2018-05-27T03:23:23.685Z,17.23
2018-05-27T03:25:51.289Z,17.24
2018-05-27T03:28:18.909Z,17.21
2018-05-27T03:30:46.514Z,17.23
2018-05-27T03:33:14.135Z,17.21
2018-05-27T03:35:41.803Z,17.24
2018-05-27T03:38:09.435Z,17.20
2018-05-27T03:40:37.041Z,17.13
2018-05-27T03:43:04.646Z,17.19
2018-05-27T03:45:32.262Z,17.22
2018-05-27T03:47:59.850Z,17.20
2018-05-27T03:50:27.486Z,17.26
2018-05-27T03:52:55.093Z,17.22
2018-05-27T03:55:22.823Z,17.26
2018-05-27T03:57:50.424Z,17.24
2018-05-27T04:00:19.679Z,17.27
2018-05-27T04:02:47.324Z,17.26
2018-05-27T04:08:34.854Z,17.26
2018-05-27T04:11:02.459Z,17.37
2018-05-27T04:13:30.096Z,17.36
2018-05-27T04:15:57.707Z,17.32
2018-05-27T04:18:25.719Z,17.34
2018-05-27T04:20:53.312Z,17.39
2018-05-27T04:23:20.919Z,17.33
2018-05-27T04:25:48.543Z,17.41
2018-05-27T04:28:16.154Z,17.47
2018-05-27T04:30:43.898Z,17.52
2018-05-27T04:33:11.514Z,17.57
2018-05-27T04:35:39.294Z,17.64
2018-05-27T04:38:06.910Z,17.69
2018-05-27T04:40:34.526Z,17.75
2018-05-27T04:43:02.152Z,17.77
2018-05-27T04:45:29.780Z,17.83
2018-05-27T04:47:57.489Z,17.86
2018-05-27T04:50:25.085Z,17.92
2018-05-27T04:52:52.727Z,17.97
2018-05-27T04:55:20.318Z,18.04
2018-05-27T04:57:47.926Z,18.10
2018-05-27T05:00:15.557Z,18.18
2018-05-27T05:02:43.172Z,18.25
2018-05-27T05:05:10.806Z,18.28
2018-05-27T05:07:38.397Z,18.31
2018-05-27T05:10:06.100Z,18.39
2018-05-27T05:12:33.708Z,18.34
2018-05-27T05:15:01.310Z,18.41
2018-05-27T05:17:28.939Z,18.47
2018-05-27T05:19:56.535Z,18.55
2018-05-27T05:22:24.171Z,18.52
2018-05-27T05:24:51.788Z,18.59
2018-05-27T05:27:19.416Z,18.65
2018-05-27T05:29:47.056Z,18.63
2018-05-27T05:32:14.661Z,18.67
2018-05-27T05:34:42.285Z,18.76
2018-05-27T05:37:09.879Z,18.81
2018-05-27T05:39:37.507Z,18.85
2018-05-27T05:42:05.121Z,18.89
2018-05-27T05:44:32.767Z,18.92
2018-05-27T05:47:00.354Z,18.97
2018-05-27T05:49:27.965Z,19.02
2018-05-27T05:51:55.591Z,19.16
2018-05-27T05:54:23.191Z,19.27
2018-05-27T05:56:50.865Z,19.30
2018-05-27T05:59:18.462Z,19.40
2018-05-27T06:01:46.095Z,19.50
2018-05-27T06:04:13.709Z,19.70
2018-05-27T06:06:41.301Z,19.79
2018-05-27T06:09:08.921Z,19.94
2018-05-27T06:11:36.530Z,20.04
2018-05-27T06:14:04.156Z,20.14
2018-05-27T06:16:31.758Z,20.27
2018-05-27T06:18:59.408Z,20.42
2018-05-27T06:21:26.997Z,20.55
2018-05-27T06:23:54.592Z,20.65
2018-05-27T06:26:22.235Z,20.74
2018-05-27T06:28:49.848Z,20.88
2018-05-27T06:31:17.478Z,20.92
2018-05-27T06:33:45.291Z,21.02
2018-05-27T06:36:13.067Z,21.17
2018-05-27T06:38:41.043Z,21.30
2018-05-27T06:41:08.639Z,21.43
2018-05-27T06:43:36.258Z,21.57
2018-05-27T06:46:03.878Z,21.60
2018-05-27T06:48:31.581Z,21.74
2018-05-27T06:50:59.182Z,21.90
2018-05-27T06:53:26.929Z,21.93
2018-05-27T06:55:54.530Z,22.03
2018-05-27T06:58:22.129Z,22.16
2018-05-27T07:00:49.744Z,22.39
2018-05-27T07:03:17.353Z,22.38
2018-05-27T07:05:44.970Z,22.23
2018-05-27T07:08:12.574Z,22.34
2018-05-27T07:10:40.423Z,22.72
2018-05-27T07:13:08.030Z,22.67
2018-05-27T07:15:35.629Z,22.87
2018-05-27T07:18:03.258Z,22.81
2018-05-27T07:20:30.846Z,22.83
2018-05-27T07:22:58.484Z,22.97
2018-05-27T07:25:26.104Z,23.03
2018-05-27T07:27:53.872Z,23.17
2018-05-27T07:30:21.475Z,23.29
2018-05-27T07:32:49.090Z,23.37
2018-05-27T07:35:16.702Z,23.44
2018-05-27T07:37:44.305Z,23.30
2018-05-27T07:40:12.031Z,23.51
2018-05-27T07:42:39.637Z,23.54
2018-05-27T07:45:07.293Z,23.56
2018-05-27T07:47:34.927Z,23.43
2018-05-27T07:50:02.532Z,23.70
2018-05-27T07:52:30.203Z,23.97
2018-05-27T07:54:57.814Z,23.82
2018-05-27T07:57:25.445Z,23.96
2018-05-27T07:59:53.039Z,24.01
2018-05-27T08:02:20.678Z,24.08
2018-05-27T08:04:48.279Z,24.15
2018-05-27T08:07:15.882Z,24.36
2018-05-27T08:09:43.515Z,24.41
2018-05-27T08:12:11.132Z,24.48
2018-05-27T08:14:38.766Z,24.65
2018-05-27T08:17:06.358Z,24.79
2018-05-27T08:19:33.989Z,25.03
2018-05-27T08:22:01.745Z,25.00
2018-05-27T08:24:29.347Z,25.01
2018-05-27T08:26:57.006Z,24.98
2018-05-27T08:29:24.606Z,25.10
2018-05-27T08:31:52.236Z,25.20
2018-05-27T08:34:19.834Z,25.14
2018-05-27T08:36:48.003Z,25.33
2018-05-27T08:39:15.613Z,25.34
2018-05-27T08:41:43.223Z,25.40
2018-05-27T08:44:10.833Z,25.42
2018-05-27T08:46:38.520Z,25.48
2018-05-27T08:49:06.170Z,25.55
2018-05-27T08:51:33.763Z,25.50
2018-05-27T08:54:01.377Z,25.71
2018-05-27T08:56:28.997Z,25.63
2018-05-27T08:58:56.605Z,25.66
2018-05-27T09:01:24.678Z,25.59
2018-05-27T09:03:52.251Z,25.65
2018-05-27T09:06:19.863Z,25.53
2018-05-27T09:08:47.486Z,25.60
2018-05-27T09:11:15.103Z,25.65
2018-05-27T09:13:42.770Z,25.61
2018-05-27T09:16:10.359Z,25.71
2018-05-27T09:18:38.164Z,25.65
2018-05-27T09:21:05.754Z,25.86
2018-05-27T09:23:33.367Z,25.92
2018-05-27T09:26:00.982Z,25.93
2018-05-27T09:28:28.616Z,26.13
2018-05-27T09:30:56.258Z,26.13
2018-05-27T09:33:23.851Z,26.18
2018-05-27T09:35:51.468Z,26.15
2018-05-27T09:38:19.074Z,26.16
2018-05-27T09:40:46.671Z,26.05
2018-05-27T09:43:14.286Z,25.97
2018-05-27T09:45:41.891Z,25.98
2018-05-27T09:48:09.509Z,25.83
2018-05-27T09:50:37.111Z,25.88
2018-05-27T09:53:04.728Z,25.93
2018-05-27T09:55:32.397Z,25.90
2018-05-27T09:58:00.047Z,25.91
2018-05-27T10:00:27.651Z,25.82
2018-05-27T10:02:55.259Z,25.23
2018-05-27T10:05:22.914Z,25.17
2018-05-27T10:07:50.522Z,25.17
2018-05-27T10:10:18.136Z,24.87
2018-05-27T10:12:45.798Z,24.95
2018-05-27T10:15:13.398Z,25.08
2018-05-27T10:17:41.025Z,25.38
2018-05-27T10:20:08.634Z,25.20
2018-05-27T10:22:36.253Z,25.46
2018-05-27T10:25:03.876Z,25.44
2018-05-27T10:27:31.542Z,25.78
2018-05-27T10:29:59.149Z,25.58
2018-05-27T10:32:26.781Z,25.75
2018-05-27T10:34:54.416Z,25.85
2018-05-27T10:37:22.032Z,25.89
2018-05-27T10:39:49.672Z,26.12
2018-05-27T10:42:17.269Z,26.04
2018-05-27T10:44:45.118Z,26.02
2018-05-27T10:47:12.722Z,26.10
2018-05-27T10:49:40.320Z,25.95
2018-05-27T10:52:07.970Z,25.91
2018-05-27T10:54:35.538Z,26.15
2018-05-27T10:57:03.161Z,26.40
2018-05-27T10:59:30.762Z,26.50
2018-05-27T11:01:58.649Z,26.65
2018-05-27T11:04:26.290Z,26.70
2018-05-27T11:06:53.878Z,26.86
2018-05-27T11:09:21.708Z,26.64
2018-05-27T11:11:49.311Z,26.84
2018-05-27T11:14:17.027Z,26.91
2018-05-27T11:16:44.694Z,27.25
2018-05-27T11:19:12.315Z,27.21
2018-05-27T11:21:40.293Z,27.28
2018-05-27T11:24:08.235Z,27.27
2018-05-27T11:26:35.835Z,27.48
2018-05-27T11:29:03.426Z,27.64
2018-05-27T11:31:31.066Z,27.29
2018-05-27T11:33:58.680Z,27.64
2018-05-27T11:36:26.330Z,27.50
2018-05-27T11:38:53.934Z,27.99
2018-05-27T11:41:22.084Z,28.21
2018-05-27T11:43:49.683Z,28.40
2018-05-27T11:46:17.281Z,28.29
2018-05-27T11:48:44.910Z,28.39
2018-05-27T11:51:12.520Z,28.43
2018-05-27T11:53:40.151Z,28.53
2018-05-27T11:56:07.756Z,28.71
2018-05-27T11:58:35.377Z,28.73
2018-05-27T12:01:02.997Z,28.99
2018-05-27T12:03:30.616Z,29.36
2018-05-27T12:05:58.248Z,29.39
2018-05-27T12:08:26.125Z,29.69
2018-05-27T12:10:53.717Z,29.99
2018-05-27T12:13:21.311Z,29.73
2018-05-27T12:15:48.936Z,29.80
2018-05-27T12:18:16.522Z,30.29
2018-05-27T12:20:44.139Z,30.09
2018-05-27T12:23:11.738Z,29.49
2018-05-27T12:25:39.391Z,29.51
2018-05-27T12:28:07.021Z,29.67
2018-05-27T12:30:34.762Z,29.25
2018-05-27T12:33:02.408Z,29.16
2018-05-27T12:35:30.168Z,29.25
2018-05-27T12:37:57.777Z,29.54
2018-05-27T12:40:25.664Z,29.67
2018-05-27T12:42:53.778Z,29.71
2018-05-27T12:45:21.501Z,29.46
2018-05-27T12:47:49.163Z,29.24
2018-05-27T12:50:16.781Z,29.31
2018-05-27T12:52:44.450Z,29.53
2018-05-27T12:55:12.038Z,29.70
2018-05-27T12:57:39.910Z,30.01
2018-05-27T13:00:07.506Z,30.19
2018-05-27T13:02:35.642Z,30.45
2018-05-27T13:05:03.281Z,30.92
2018-05-27T13:07:31.878Z,31.22
2018-05-27T13:09:59.536Z,31.79
2018-05-27T13:12:27.135Z,32.44
2018-05-27T13:14:55.591Z,33.32
2018-05-27T13:17:23.194Z,33.93
2018-05-27T13:19:50.785Z,34.83
2018-05-27T13:22:18.445Z,35.57
2018-05-27T13:24:46.045Z,36.28
2018-05-27T13:27:13.667Z,36.93
2018-05-27T13:29:41.277Z,37.10
2018-05-27T13:32:09.090Z,37.10
2018-05-27T13:34:36.681Z,35.54
2018-05-27T13:37:04.288Z,33.01
2018-05-27T13:39:31.915Z,33.40
2018-05-27T13:41:59.506Z,33.85
2018-05-27T13:44:27.115Z,34.23
2018-05-27T13:46:54.729Z,35.49
2018-05-27T13:49:22.743Z,34.74
2018-05-27T13:51:50.338Z,33.97
2018-05-27T13:54:17.949Z,34.08
2018-05-27T13:56:45.635Z,33.55
2018-05-27T13:59:13.242Z,33.44
2018-05-27T14:01:40.925Z,33.18
2018-05-27T14:04:08.527Z,32.62
2018-05-27T14:06:36.151Z,32.27
2018-05-27T14:09:03.771Z,31.96
2018-05-27T14:11:31.939Z,31.95
2018-05-27T14:13:59.549Z,31.57
2018-05-27T14:16:27.142Z,31.36
2018-05-27T14:18:54.831Z,31.26
2018-05-27T14:21:22.467Z,31.28
2018-05-27T14:23:50.098Z,31.12
2018-05-27T14:26:17.698Z,31.03
2018-05-27T14:28:45.473Z,30.91
2018-05-27T14:31:13.080Z,30.81
2018-05-27T14:33:40.678Z,30.66
2018-05-27T14:36:08.430Z,30.62
2018-05-27T14:38:36.020Z,30.54
2018-05-27T14:41:03.685Z,30.26
2018-05-27T14:43:31.287Z,30.40
2018-05-27T14:45:58.925Z,30.45
2018-05-27T14:48:26.520Z,30.22
2018-05-27T14:50:54.171Z,30.28
2018-05-27T14:53:21.777Z,30.35
2018-05-27T14:55:49.401Z,30.02
2018-05-27T14:58:17.027Z,30.05
2018-05-27T15:00:45.290Z,29.44
2018-05-27T15:03:13.027Z,29.79
2018-05-27T15:05:40.642Z,29.66
2018-05-27T15:08:08.397Z,29.44
2018-05-27T15:10:36.023Z,29.11
2018-05-27T15:13:03.665Z,29.21
2018-05-27T15:15:31.287Z,29.07
2018-05-27T15:17:58.898Z,29.04
2018-05-27T15:20:26.544Z,29.15
2018-05-27T15:22:54.142Z,29.13
2018-05-27T15:25:21.790Z,29.02
2018-05-27T15:27:49.403Z,29.03
2018-05-27T15:30:17.035Z,29.02
2018-05-27T15:32:44.714Z,28.93
2018-05-27T15:35:12.392Z,28.85
2018-05-27T15:37:39.988Z,28.77
2018-05-27T15:40:07.605Z,28.81
2018-05-27T15:42:35.357Z,28.71
2018-05-27T15:45:03.337Z,28.73
2018-05-27T15:47:31.159Z,28.71
2018-05-27T15:49:58.803Z,28.75
2018-05-27T15:52:26.471Z,28.82
2018-05-27T15:54:54.170Z,28.59
2018-05-27T15:57:22.001Z,28.62
2018-05-27T15:59:49.688Z,28.53
2018-05-27T16:02:17.267Z,28.59
2018-05-27T16:04:45.028Z,28.63
2018-05-27T16:07:12.638Z,28.65
2018-05-27T16:09:40.255Z,28.77
2018-05-27T16:12:07.887Z,28.80
2018-05-27T16:14:35.658Z,28.80
2018-05-27T16:17:03.308Z,28.87
2018-05-27T16:19:30.995Z,28.83
2018-05-27T16:21:58.604Z,28.79
2018-05-27T16:24:26.230Z,28.87
2018-05-27T16:26:53.849Z,28.84
2018-05-27T16:29:21.519Z,28.80
2018-05-27T16:31:49.130Z,28.74
2018-05-27T16:34:16.746Z,28.67
2018-05-27T16:36:44.374Z,28.59
2018-05-27T16:39:12.079Z,28.68
2018-05-27T16:41:39.705Z,28.79
2018-05-27T16:44:07.326Z,28.80
2018-05-27T16:46:35.114Z,28.73
2018-05-27T16:49:02.708Z,28.69
2018-05-27T16:51:30.513Z,28.73
2018-05-27T16:53:58.146Z,28.78
2018-05-27T16:56:25.760Z,28.87
2018-05-27T16:58:53.366Z,28.77
2018-05-27T17:01:20.959Z,28.64
2018-05-27T17:03:48.592Z,28.76
2018-05-27T17:06:16.196Z,28.77
2018-05-27T17:08:43.842Z,28.84
2018-05-27T17:11:11.431Z,28.79
2018-05-27T17:13:39.033Z,28.81
2018-05-27T17:16:06.675Z,28.79
2018-05-27T17:18:34.273Z,28.87
2018-05-27T17:21:01.888Z,28.89
2018-05-27T17:23:29.493Z,28.88
2018-05-27T17:25:57.137Z,28.83
2018-05-27T17:28:24.757Z,28.74
2018-05-27T17:30:52.359Z,28.66
2018-05-27T17:33:20.043Z,28.59
2018-05-27T17:35:47.651Z,28.52
2018-05-27T17:38:15.286Z,28.49
2018-05-27T17:40:42.886Z,28.45
2018-05-27T17:43:10.530Z,28.38
2018-05-27T17:45:38.131Z,28.33
2018-05-27T17:48:13.938Z,28.40
2018-05-27T17:50:41.530Z,28.42
2018-05-27T17:53:09.136Z,28.33
2018-05-27T17:55:36.768Z,28.35
2018-05-27T17:58:04.935Z,28.30
2018-05-27T18:00:32.545Z,28.08
2018-05-27T18:03:00.163Z,27.93
2018-05-27T18:05:27.754Z,27.85
2018-05-27T18:07:55.634Z,27.77
2018-05-27T18:10:23.239Z,27.70
2018-05-27T18:12:50.834Z,27.61
2018-05-27T18:15:18.459Z,27.56
2018-05-27T18:17:46.059Z,27.46
2018-05-27T18:20:13.721Z,27.40
2018-05-27T18:22:41.316Z,27.25
2018-05-27T18:25:08.969Z,27.14
2018-05-27T18:27:36.657Z,27.03
2018-05-27T18:30:04.310Z,27.02
2018-05-27T18:32:31.916Z,26.97
2018-05-27T18:34:59.525Z,26.86
2018-05-27T18:37:27.145Z,26.77
2018-05-27T18:39:54.757Z,26.61
2018-05-27T18:42:22.593Z,26.58
2018-05-27T18:44:50.199Z,26.49
2018-05-27T18:47:17.813Z,26.18
2018-05-27T18:49:45.451Z,25.97
2018-05-27T18:52:13.082Z,25.63
2018-05-27T18:54:40.903Z,25.30
2018-05-27T18:57:08.530Z,25.43
2018-05-27T18:59:36.127Z,25.30
2018-05-27T19:02:03.750Z,24.89
2018-05-27T19:04:31.382Z,24.51
2018-05-27T19:06:59.229Z,24.21
2018-05-27T19:09:27.022Z,24.04
2018-05-27T19:11:54.642Z,23.96
2018-05-27T19:14:22.270Z,23.93
2018-05-27T19:16:49.890Z,23.94
2018-05-27T19:19:17.746Z,23.74
2018-05-27T19:21:45.352Z,23.81
2018-05-27T19:24:12.962Z,23.66
2018-05-27T19:26:40.670Z,23.62
2018-05-27T19:29:08.271Z,23.62
2018-05-27T19:31:35.918Z,23.60
2018-05-27T19:34:03.543Z,23.59
2018-05-27T19:36:31.483Z,23.59
2018-05-27T19:38:59.086Z,23.41
2018-05-27T19:41:26.685Z,23.40
2018-05-27T19:43:54.306Z,23.29
2018-05-27T19:46:21.932Z,23.15
2018-05-27T19:48:49.545Z,23.06
2018-05-27T19:51:17.156Z,22.90
2018-05-27T19:53:44.907Z,22.80
2018-05-27T19:56:12.510Z,22.81
2018-05-27T19:58:40.111Z,22.75
2018-05-27T20:01:07.738Z,22.69
2018-05-27T20:03:35.343Z,22.66
2018-05-27T20:06:03.079Z,22.64
2018-05-27T20:08:30.733Z,22.53
2018-05-27T20:10:58.379Z,22.47
2018-05-27T20:13:26.010Z,22.38
2018-05-27T20:15:54.227Z,22.36
2018-05-27T20:18:21.863Z,22.31
2018-05-27T20:20:49.475Z,22.26
2018-05-27T20:23:17.111Z,22.15
2018-05-27T20:25:44.727Z,22.15
2018-05-27T20:28:12.347Z,21.92
2018-05-27T20:30:39.949Z,22.02
2018-05-27T20:33:07.807Z,22.02
2018-05-27T20:35:35.404Z,21.98
2018-05-27T20:38:03.052Z,21.97
2018-05-27T20:40:30.679Z,21.89
2018-05-27T20:42:58.296Z,21.84
2018-05-27T20:45:25.916Z,21.79
2018-05-27T20:47:53.538Z,21.78
2018-05-27T20:50:21.161Z,21.76
2018-05-27T20:52:48.759Z,21.71
2018-05-27T20:55:16.390Z,21.67
2018-05-27T20:57:44.020Z,21.70
2018-05-27T21:00:11.618Z,21.59
2018-05-27T21:02:39.260Z,21.59
2018-05-27T21:05:06.859Z,21.59
2018-05-27T21:07:34.509Z,21.53
2018-05-27T21:10:02.131Z,21.55
2018-05-27T21:12:29.735Z,21.53
2018-05-27T21:14:57.366Z,21.49
2018-05-27T21:17:24.963Z,21.48
2018-05-27T21:19:52.604Z,21.46
2018-05-27T21:22:20.343Z,21.37
2018-05-27T21:24:47.943Z,21.43
2018-05-27T21:27:15.571Z,21.37
2018-05-27T21:29:43.251Z,21.31
2018-05-27T21:32:10.907Z,21.29
2018-05-27T21:34:38.567Z,21.26
2018-05-27T21:37:06.226Z,21.27
2018-05-27T21:39:33.848Z,21.25
2018-05-27T21:42:01.572Z,21.22
2018-05-27T21:44:29.309Z,21.22
2018-05-27T21:46:56.911Z,21.24
2018-05-27T21:49:24.533Z,21.24
2018-05-27T21:51:52.121Z,21.21
2018-05-27T21:54:19.747Z,21.12
2018-05-27T21:56:47.354Z,21.05
2018-05-27T21:59:15.385Z,20.97
2018-05-27T22:01:43.008Z,20.95
2018-05-27T22:04:10.700Z,20.94
2018-05-27T22:06:38.327Z,21.00
2018-05-27T22:09:05.932Z,21.08
2018-05-27T22:11:33.618Z,21.05
2018-05-27T22:14:01.244Z,21.04
2018-05-27T22:16:29.013Z,20.90
2018-05-27T22:18:56.610Z,20.91
2018-05-27T22:30:11.367Z,20.81
2018-05-27T22:32:38.982Z,20.76
2018-05-27T22:35:06.612Z,20.75
2018-05-27T22:37:34.214Z,20.70
2018-05-27T22:40:01.844Z,20.68
2018-05-27T22:42:29.445Z,20.67
2018-05-27T22:44:57.263Z,20.69
2018-05-27T22:47:24.858Z,20.64
2018-05-27T22:49:52.471Z,20.63
2018-05-27T22:52:20.097Z,20.55
2018-05-27T22:54:47.695Z,20.51
2018-05-27T22:57:15.317Z,20.51
2018-05-27T22:59:42.929Z,20.45
2018-05-27T23:02:10.567Z,20.38
2018-05-27T23:04:38.161Z,20.41
2018-05-27T23:07:05.937Z,20.39
2018-05-27T23:09:33.564Z,20.33
2018-05-27T23:12:01.174Z,20.30
2018-05-27T23:14:28.790Z,20.31
2018-05-27T23:16:56.401Z,20.29
2018-05-27T23:19:24.023Z,20.26
2018-05-27T23:21:51.621Z,20.19
2018-05-27T23:24:19.472Z,20.16
2018-05-27T23:26:47.109Z,20.18
2018-05-27T23:29:14.708Z,20.10
2018-05-27T23:31:42.451Z,20.08
2018-05-27T23:34:10.060Z,20.13
2018-05-27T23:36:37.691Z,20.14
2018-05-27T23:39:06.551Z,20.04
2018-05-27T23:41:34.336Z,20.03
2018-05-27T23:44:01.946Z,19.98
2018-05-27T23:46:29.554Z,19.94
2018-05-27T23:48:57.202Z,19.94
2018-05-27T23:51:24.815Z,19.89
2018-05-27T23:53:52.473Z,19.82
2018-05-27T23:56:20.074Z,19.79
2018-05-27T23:58:48.069Z,19.82
